createdAt,value
2018-12-31T00:01:21.252Z,6.46
2018-12-31T00:03:48.397Z,6.49
2018-12-31T00:06:15.398Z,6.47
2018-12-31T00:08:42.883Z,6.47
2018-12-31T00:11:09.938Z,6.39
2018-12-31T00:13:36.822Z,6.28
2018-12-31T00:16:04.005Z,6.38
2018-12-31T00:18:32.412Z,6.34
2018-12-31T00:20:59.581Z,6.35
2018-12-31T00:23:26.515Z,6.34
2018-12-31T00:25:53.790Z,6.35
2018-12-31T00:28:21.461Z,6.37
2018-12-31T00:30:48.547Z,6.39
2018-12-31T00:33:15.677Z,6.47
2018-12-31T00:35:42.678Z,6.45
2018-12-31T00:38:09.716Z,6.45
2018-12-31T00:40:36.994Z,6.37
2018-12-31T00:43:04.582Z,6.41
2018-12-31T00:45:31.978Z,6.38
2018-12-31T00:47:58.659Z,6.31
2018-12-31T00:50:26.975Z,6.30
2018-12-31T00:52:54.046Z,6.27
2018-12-31T00:55:21.728Z,6.29
2018-12-31T00:57:49.691Z,6.30
2018-12-31T01:00:17.273Z,6.40
2018-12-31T01:02:44.054Z,6.38
2018-12-31T01:05:10.724Z,6.33
2018-12-31T01:07:38.308Z,6.33
2018-12-31T01:10:05.206Z,6.32
2018-12-31T01:12:31.900Z,6.36
2018-12-31T01:14:59.370Z,6.35
2018-12-31T01:17:26.682Z,6.32
2018-12-31T01:19:53.730Z,6.32
2018-12-31T01:22:20.425Z,6.34
2018-12-31T01:24:47.354Z,6.32
2018-12-31T01:27:14.659Z,6.27
2018-12-31T01:29:41.436Z,6.35
2018-12-31T01:32:08.530Z,6.36
2018-12-31T01:34:35.885Z,6.34
2018-12-31T01:37:03.125Z,6.30
2018-12-31T01:39:30.198Z,6.27
2018-12-31T01:41:56.886Z,6.24
2018-12-31T01:44:24.239Z,6.21
2018-12-31T01:46:51.426Z,6.23
2018-12-31T01:49:19.353Z,6.24
2018-12-31T01:51:46.152Z,6.26
2018-12-31T01:54:13.616Z,6.29
2018-12-31T01:56:40.311Z,6.24
2018-12-31T01:59:08.427Z,6.32
2018-12-31T02:01:35.118Z,6.29
2018-12-31T02:04:02.164Z,6.25
2018-12-31T02:06:28.878Z,6.29
2018-12-31T02:08:56.338Z,6.27
2018-12-31T02:11:23.876Z,6.31
2018-12-31T02:13:51.838Z,6.32
2018-12-31T02:16:20.014Z,6.28
2018-12-31T02:18:47.510Z,6.29
2018-12-31T02:21:18.849Z,6.16
2018-12-31T02:23:46.239Z,6.21
2018-12-31T02:26:13.718Z,6.29
2018-12-31T02:28:42.167Z,6.23
2018-12-31T02:31:08.917Z,6.28
2018-12-31T02:33:35.811Z,6.21
2018-12-31T02:36:03.486Z,6.43
2018-12-31T02:38:31.420Z,6.30
2018-12-31T02:40:59.019Z,6.18
2018-12-31T02:43:26.755Z,6.26
2018-12-31T02:45:53.669Z,6.17
2018-12-31T02:48:20.828Z,6.19
2018-12-31T02:50:48.160Z,6.23
2018-12-31T02:53:15.502Z,6.28
2018-12-31T02:55:42.313Z,6.46
2018-12-31T02:58:09.862Z,6.29
2018-12-31T03:00:36.895Z,6.26
2018-12-31T03:03:04.274Z,6.23
2018-12-31T03:05:31.395Z,6.28
2018-12-31T03:07:58.339Z,6.28
2018-12-31T03:10:26.514Z,6.21
2018-12-31T03:12:53.686Z,6.15
2018-12-31T03:15:20.597Z,6.17
2018-12-31T03:17:47.504Z,6.21
2018-12-31T03:20:14.482Z,6.21
2018-12-31T03:22:41.523Z,6.21
2018-12-31T03:25:09.167Z,6.37
2018-12-31T03:27:36.981Z,6.36
2018-12-31T03:30:04.555Z,6.30
2018-12-31T03:32:31.836Z,6.32
2018-12-31T03:34:58.839Z,6.35
2018-12-31T03:37:26.304Z,6.25
2018-12-31T03:39:53.492Z,6.29
2018-12-31T03:42:20.610Z,6.27
2018-12-31T03:44:47.719Z,6.25
2018-12-31T03:47:15.312Z,6.20
2018-12-31T03:49:42.296Z,6.23
2018-12-31T03:52:09.176Z,6.21
2018-12-31T03:54:36.215Z,6.21
2018-12-31T03:57:03.465Z,6.21
2018-12-31T03:59:38.114Z,6.13
2018-12-31T04:02:05.309Z,6.14
2018-12-31T04:04:33.017Z,6.15
2018-12-31T04:06:59.803Z,6.19
2018-12-31T04:09:26.719Z,6.16
2018-12-31T04:11:54.210Z,6.16
2018-12-31T04:14:21.566Z,6.13
2018-12-31T04:16:48.761Z,6.05
2018-12-31T04:19:15.682Z,6.05
2018-12-31T04:21:43.031Z,6.12
2018-12-31T04:24:09.964Z,6.04
2018-12-31T04:26:36.907Z,6.08
2018-12-31T04:29:03.930Z,6.07
2018-12-31T04:31:30.623Z,6.06
2018-12-31T04:33:58.013Z,6.04
2018-12-31T04:36:32.935Z,6.08
2018-12-31T04:39:16.112Z,6.10
2018-12-31T04:41:43.207Z,6.10
2018-12-31T04:44:10.271Z,6.06
2018-12-31T04:46:38.543Z,6.08
2018-12-31T04:49:05.246Z,6.05
2018-12-31T04:51:32.746Z,6.11
2018-12-31T04:54:04.906Z,6.04
2018-12-31T04:56:32.012Z,6.13
2018-12-31T04:58:59.101Z,6.10
2018-12-31T05:01:27.070Z,6.11
2018-12-31T05:03:55.291Z,6.17
2018-12-31T05:06:23.869Z,6.17
2018-12-31T05:08:52.374Z,6.25
2018-12-31T05:11:21.836Z,6.20
2018-12-31T05:13:50.291Z,6.16
2018-12-31T05:16:17.725Z,6.21
2018-12-31T05:18:47.990Z,6.17
2018-12-31T05:21:15.196Z,6.16
2018-12-31T05:23:41.979Z,6.22
2018-12-31T05:26:09.348Z,6.18
2018-12-31T05:28:37.251Z,6.19
2018-12-31T05:31:04.506Z,6.43
2018-12-31T05:33:32.186Z,6.45
2018-12-31T05:36:00.152Z,6.52
2018-12-31T05:38:26.835Z,6.84
2018-12-31T05:40:54.765Z,6.53
2018-12-31T05:43:22.031Z,6.39
2018-12-31T05:45:49.449Z,6.46
2018-12-31T05:48:16.622Z,6.40
2018-12-31T05:50:43.878Z,6.59
2018-12-31T05:53:10.596Z,6.74
2018-12-31T05:55:38.443Z,6.69
2018-12-31T05:58:05.228Z,6.55
2018-12-31T06:00:33.017Z,6.61
2018-12-31T06:03:00.222Z,6.51
2018-12-31T06:05:27.491Z,6.56
2018-12-31T06:07:54.731Z,6.42
2018-12-31T06:10:22.336Z,6.45
2018-12-31T06:12:49.026Z,6.52
2018-12-31T06:15:16.829Z,6.44
2018-12-31T06:17:44.335Z,6.31
2018-12-31T06:20:11.021Z,6.36
2018-12-31T06:22:37.717Z,6.67
2018-12-31T06:25:04.929Z,6.92
2018-12-31T06:27:32.650Z,7.05
2018-12-31T06:30:00.257Z,6.80
2018-12-31T06:32:32.582Z,6.74
2018-12-31T06:35:00.181Z,6.90
2018-12-31T06:37:27.693Z,6.75
2018-12-31T06:39:54.958Z,6.95
2018-12-31T06:42:21.653Z,6.81
2018-12-31T06:44:48.338Z,6.78
2018-12-31T06:47:15.029Z,6.94
2018-12-31T06:49:41.712Z,6.89
2018-12-31T06:52:08.370Z,7.04
2018-12-31T06:54:36.565Z,6.98
2018-12-31T06:57:06.471Z,6.92
2018-12-31T06:59:33.381Z,7.00
2018-12-31T07:02:05.614Z,6.93
2018-12-31T07:04:32.683Z,6.90
2018-12-31T07:06:59.742Z,6.92
2018-12-31T07:09:27.165Z,6.88
2018-12-31T07:11:54.457Z,7.00
2018-12-31T07:14:21.098Z,7.00
2018-12-31T07:16:48.095Z,7.06
2018-12-31T07:19:14.757Z,7.12
2018-12-31T07:21:41.963Z,6.99
2018-12-31T07:24:09.884Z,7.13
2018-12-31T07:26:37.316Z,7.08
2018-12-31T07:29:05.102Z,7.10
2018-12-31T07:31:32.567Z,7.10
2018-12-31T07:33:59.705Z,7.08
2018-12-31T07:36:26.753Z,7.19
2018-12-31T07:38:54.309Z,7.18
2018-12-31T07:41:21.449Z,7.29
2018-12-31T07:43:49.582Z,7.26
2018-12-31T07:46:16.242Z,7.33
2018-12-31T07:48:42.905Z,7.28
2018-12-31T07:51:09.874Z,7.12
2018-12-31T07:53:36.542Z,7.15
2018-12-31T07:56:03.668Z,7.26
2018-12-31T07:58:31.199Z,7.29
2018-12-31T08:00:58.527Z,7.22
2018-12-31T08:03:26.109Z,7.15
2018-12-31T08:05:53.477Z,7.32
2018-12-31T08:08:20.153Z,7.50
2018-12-31T08:10:50.465Z,7.27
2018-12-31T08:13:17.487Z,7.32
2018-12-31T08:15:45.251Z,7.37
2018-12-31T08:18:11.947Z,7.35
2018-12-31T08:20:38.890Z,7.44
2018-12-31T08:23:07.587Z,7.46
2018-12-31T08:25:34.771Z,7.48
2018-12-31T08:28:05.662Z,7.35
2018-12-31T08:30:32.330Z,7.32
2018-12-31T08:32:59.934Z,7.22
2018-12-31T08:35:26.966Z,7.41
2018-12-31T08:37:55.142Z,7.45
2018-12-31T08:40:21.823Z,7.46
2018-12-31T08:42:49.015Z,7.42
2018-12-31T08:45:15.689Z,7.40
2018-12-31T08:47:43.711Z,7.52
2018-12-31T08:50:10.703Z,7.56
2018-12-31T08:52:39.047Z,7.53
2018-12-31T08:55:06.629Z,7.38
2018-12-31T08:57:38.074Z,7.36
2018-12-31T09:00:05.374Z,7.35
2018-12-31T09:02:32.613Z,7.37
2018-12-31T09:04:59.286Z,7.36
2018-12-31T09:07:25.969Z,7.31
2018-12-31T09:09:53.181Z,7.20
2018-12-31T09:12:20.118Z,7.22
2018-12-31T09:14:47.457Z,7.23
2018-12-31T09:17:14.390Z,7.24
2018-12-31T09:19:41.539Z,7.29
2018-12-31T09:22:08.632Z,7.28
2018-12-31T09:24:35.768Z,7.24
2018-12-31T09:27:03.027Z,7.27
2018-12-31T09:29:30.165Z,7.28
2018-12-31T09:31:56.927Z,7.29
2018-12-31T09:34:24.374Z,7.27
2018-12-31T09:36:51.219Z,7.32
2018-12-31T09:39:18.122Z,7.35
2018-12-31T09:41:45.171Z,7.36
2018-12-31T09:44:12.169Z,7.40
2018-12-31T09:46:39.581Z,7.38
2018-12-31T09:49:06.948Z,7.44
2018-12-31T09:51:34.271Z,7.45
2018-12-31T09:54:02.075Z,7.42
2018-12-31T09:56:28.780Z,7.52
2018-12-31T09:58:55.864Z,7.52
2018-12-31T10:01:23.318Z,7.51
2018-12-31T10:03:50.784Z,7.51
2018-12-31T10:06:17.949Z,7.55
2018-12-31T10:08:49.230Z,7.57
2018-12-31T10:11:13.728Z,7.60
2018-12-31T10:13:46.243Z,7.60
2018-12-31T10:16:13.293Z,7.60
2018-12-31T10:18:46.573Z,7.62
2018-12-31T10:21:13.622Z,7.59
2018-12-31T10:23:41.257Z,7.61
2018-12-31T10:26:09.029Z,7.60
2018-12-31T10:28:37.194Z,7.63
2018-12-31T10:31:05.717Z,7.66
2018-12-31T10:33:33.166Z,7.68
2018-12-31T10:35:59.890Z,7.62
2018-12-31T10:38:27.141Z,7.70
2018-12-31T10:40:55.011Z,7.69
2018-12-31T10:43:22.587Z,7.70
2018-12-31T10:45:49.557Z,7.65
2018-12-31T10:48:16.720Z,7.64
2018-12-31T10:50:44.655Z,7.61
2018-12-31T10:53:11.647Z,7.67
2018-12-31T10:55:39.465Z,7.69
2018-12-31T10:58:08.040Z,7.77
2018-12-31T11:00:35.199Z,7.74
2018-12-31T11:03:02.316Z,7.78
2018-12-31T11:05:29.271Z,7.84
2018-12-31T11:07:56.955Z,7.80
2018-12-31T11:10:24.216Z,7.88
2018-12-31T11:12:51.275Z,7.76
2018-12-31T11:15:18.292Z,7.77
2018-12-31T11:17:45.952Z,7.73
2018-12-31T11:20:13.512Z,7.76
2018-12-31T11:22:41.683Z,7.74
2018-12-31T11:25:09.036Z,7.75
2018-12-31T11:27:36.999Z,7.79
2018-12-31T11:30:04.657Z,7.76
2018-12-31T11:32:31.805Z,7.73
2018-12-31T11:34:58.465Z,7.58
2018-12-31T11:37:25.119Z,7.75
2018-12-31T11:39:52.347Z,7.74
2018-12-31T11:42:19.372Z,7.71
2018-12-31T11:44:46.038Z,7.75
2018-12-31T11:47:13.038Z,7.76
2018-12-31T11:49:40.218Z,7.81
2018-12-31T11:52:06.907Z,7.86
2018-12-31T11:54:33.594Z,7.87
2018-12-31T11:57:00.388Z,7.88
2018-12-31T11:59:27.093Z,7.87
2018-12-31T12:01:55.662Z,7.88
2018-12-31T12:04:23.741Z,7.89
2018-12-31T12:06:51.440Z,7.94
2018-12-31T12:09:18.139Z,7.94
2018-12-31T12:11:46.819Z,7.94
2018-12-31T12:14:14.598Z,7.89
2018-12-31T12:16:41.654Z,7.88
2018-12-31T12:19:09.200Z,7.92
2018-12-31T12:21:36.948Z,7.92
2018-12-31T12:24:06.196Z,7.91
2018-12-31T12:26:33.929Z,7.84
2018-12-31T12:29:16.321Z,7.90
2018-12-31T12:31:43.117Z,8.01
2018-12-31T12:34:09.802Z,7.99
2018-12-31T12:36:37.062Z,8.02
2018-12-31T12:39:06.978Z,8.01
2018-12-31T12:41:34.322Z,7.98
2018-12-31T12:44:02.091Z,7.97
2018-12-31T12:46:28.766Z,7.98
2018-12-31T12:48:55.551Z,7.96
2018-12-31T12:51:23.344Z,7.99
2018-12-31T12:53:50.020Z,7.92
2018-12-31T12:56:17.257Z,8.00
2018-12-31T12:58:44.678Z,8.03
2018-12-31T13:01:12.181Z,8.04
2018-12-31T13:03:39.533Z,8.01
2018-12-31T13:06:06.333Z,8.05
2018-12-31T13:08:33.268Z,8.05
2018-12-31T13:11:01.155Z,8.04
2018-12-31T13:13:29.206Z,8.23
2018-12-31T13:15:57.395Z,8.18
2018-12-31T13:18:24.437Z,8.23
2018-12-31T13:20:51.753Z,8.24
2018-12-31T13:23:19.044Z,8.29
2018-12-31T13:25:46.050Z,8.22
2018-12-31T13:28:13.325Z,8.31
2018-12-31T13:30:40.900Z,8.23
2018-12-31T13:33:11.849Z,8.36
2018-12-31T13:35:38.991Z,8.35
2018-12-31T13:38:10.823Z,8.35
2018-12-31T13:40:37.833Z,8.31
2018-12-31T13:43:04.510Z,8.31
2018-12-31T13:45:31.455Z,8.31
2018-12-31T13:47:59.135Z,8.33
2018-12-31T13:50:26.556Z,8.35
2018-12-31T13:52:53.743Z,8.31
2018-12-31T13:55:21.935Z,8.53
2018-12-31T13:57:48.716Z,8.46
2018-12-31T14:00:15.826Z,8.35
2018-12-31T14:02:43.020Z,8.37
2018-12-31T14:05:09.813Z,8.32
2018-12-31T14:07:37.397Z,8.51
2018-12-31T14:10:04.983Z,8.43
2018-12-31T14:12:32.964Z,8.55
2018-12-31T14:14:59.658Z,8.48
2018-12-31T14:17:26.309Z,8.46
2018-12-31T14:19:53.477Z,8.47
2018-12-31T14:22:20.759Z,8.52
2018-12-31T14:24:50.887Z,8.50
2018-12-31T14:27:18.428Z,8.41
2018-12-31T14:29:55.552Z,8.41
2018-12-31T14:32:22.635Z,8.38
2018-12-31T14:34:49.497Z,8.48
2018-12-31T14:37:16.578Z,8.37
2018-12-31T14:39:43.811Z,8.49
2018-12-31T14:42:11.268Z,8.54
2018-12-31T14:44:38.169Z,8.43
2018-12-31T14:47:04.822Z,8.56
2018-12-31T14:49:32.318Z,8.52
2018-12-31T14:51:59.442Z,8.58
2018-12-31T14:54:26.576Z,8.54
2018-12-31T14:56:53.922Z,8.50
2018-12-31T14:59:21.646Z,8.55
2018-12-31T15:01:48.429Z,8.66
2018-12-31T15:04:15.083Z,8.54
2018-12-31T15:06:43.262Z,8.54
2018-12-31T15:09:10.613Z,8.49
2018-12-31T15:11:37.477Z,8.48
2018-12-31T15:14:05.461Z,8.48
2018-12-31T15:16:32.249Z,8.51
2018-12-31T15:19:00.046Z,8.54
2018-12-31T15:21:27.016Z,8.49
2018-12-31T15:23:53.701Z,8.45
2018-12-31T15:26:22.524Z,8.42
2018-12-31T15:28:49.983Z,8.42
2018-12-31T15:31:16.894Z,8.38
2018-12-31T15:33:46.042Z,8.37
2018-12-31T15:36:13.673Z,8.38
2018-12-31T15:38:40.586Z,8.46
2018-12-31T15:41:08.205Z,8.46
2018-12-31T15:43:35.432Z,8.52
2018-12-31T15:46:02.592Z,8.47
2018-12-31T15:48:31.792Z,8.43
2018-12-31T15:50:59.055Z,8.39
2018-12-31T15:53:26.130Z,8.40
2018-12-31T15:55:52.930Z,8.39
2018-12-31T15:58:20.689Z,8.37
2018-12-31T16:00:48.388Z,8.38
2018-12-31T16:03:15.777Z,8.34
2018-12-31T16:05:42.539Z,8.39
2018-12-31T16:08:09.559Z,8.37
2018-12-31T16:10:36.961Z,8.34
2018-12-31T16:13:04.226Z,8.36
2018-12-31T16:15:31.317Z,8.40
2018-12-31T16:17:58.234Z,8.46
2018-12-31T16:20:25.628Z,8.45
2018-12-31T16:22:52.998Z,8.49
2018-12-31T16:25:21.188Z,8.41
2018-12-31T16:27:48.712Z,8.48
2018-12-31T16:30:16.928Z,8.47
2018-12-31T16:32:43.609Z,8.55
2018-12-31T16:35:10.827Z,8.48
2018-12-31T16:37:37.548Z,8.49
2018-12-31T16:40:04.999Z,8.49
2018-12-31T16:42:32.771Z,8.48
2018-12-31T16:44:59.463Z,8.48
2018-12-31T16:47:27.457Z,8.51
2018-12-31T16:49:55.242Z,8.50
2018-12-31T16:52:22.784Z,8.52
2018-12-31T16:54:50.555Z,8.53
2018-12-31T16:57:18.000Z,8.52
2018-12-31T16:59:45.040Z,8.51
2018-12-31T17:02:11.733Z,8.55
2018-12-31T17:04:39.234Z,8.56
2018-12-31T17:07:05.918Z,8.58
2018-12-31T17:09:33.236Z,8.56
2018-12-31T17:12:01.215Z,8.53
2018-12-31T17:14:28.153Z,8.54
2018-12-31T17:16:55.403Z,8.56
2018-12-31T17:19:22.189Z,8.55
2018-12-31T17:21:49.165Z,8.57
2018-12-31T17:24:16.646Z,8.52
2018-12-31T17:26:43.530Z,8.48
2018-12-31T17:29:10.996Z,8.46
2018-12-31T17:31:38.104Z,8.42
2018-12-31T17:34:06.122Z,8.43
2018-12-31T17:36:33.418Z,8.43
2018-12-31T17:39:00.565Z,8.41
2018-12-31T17:41:27.246Z,8.42
2018-12-31T17:43:54.774Z,8.37
2018-12-31T17:46:22.438Z,8.35
2018-12-31T17:48:49.418Z,8.37
2018-12-31T17:51:16.610Z,8.71
2018-12-31T17:53:43.270Z,8.57
2018-12-31T17:56:09.947Z,8.38
2018-12-31T17:58:36.864Z,8.27
2018-12-31T18:01:04.270Z,8.25
2018-12-31T18:03:31.553Z,8.26
2018-12-31T18:05:58.812Z,8.44
2018-12-31T18:08:26.265Z,8.26
2018-12-31T18:10:53.316Z,8.29
2018-12-31T18:13:21.500Z,8.25
2018-12-31T18:15:49.424Z,8.22
2018-12-31T18:18:16.805Z,8.27
2018-12-31T18:20:44.057Z,8.19
2018-12-31T18:23:11.696Z,8.16
2018-12-31T18:25:41.177Z,8.19
2018-12-31T18:28:09.101Z,8.18
2018-12-31T18:30:36.211Z,8.19
2018-12-31T18:33:03.013Z,8.19
2018-12-31T18:35:30.540Z,8.18
2018-12-31T18:37:57.229Z,8.19
2018-12-31T18:40:24.332Z,8.16
2018-12-31T18:42:51.268Z,8.19
2018-12-31T18:45:18.336Z,8.24
2018-12-31T18:47:44.995Z,8.22
2018-12-31T18:50:11.686Z,8.20
2018-12-31T18:52:38.760Z,8.22
2018-12-31T18:55:06.308Z,8.28
2018-12-31T18:57:33.560Z,8.28
2018-12-31T19:00:01.005Z,8.27
2018-12-31T19:02:28.055Z,8.29
2018-12-31T19:04:54.747Z,8.29
2018-12-31T19:07:21.860Z,8.31
2018-12-31T19:09:48.803Z,8.35
2018-12-31T19:12:16.358Z,8.34
2018-12-31T19:14:44.264Z,8.38
2018-12-31T19:17:11.766Z,8.36
2018-12-31T19:19:38.546Z,8.35
2018-12-31T19:22:05.344Z,8.39
2018-12-31T19:24:32.818Z,8.40
2018-12-31T19:26:59.729Z,8.39
2018-12-31T19:29:26.957Z,8.43
2018-12-31T19:31:54.606Z,8.42
2018-12-31T19:34:21.274Z,8.43
2018-12-31T19:36:48.966Z,8.41
2018-12-31T19:39:16.133Z,8.38
2018-12-31T19:41:43.564Z,8.40
2018-12-31T19:44:10.873Z,8.39
2018-12-31T19:46:37.842Z,8.45
2018-12-31T19:49:04.522Z,8.45
2018-12-31T19:51:32.171Z,8.44
2018-12-31T19:54:01.081Z,8.43
2018-12-31T19:56:28.258Z,8.47
2018-12-31T19:58:55.892Z,8.45
2018-12-31T20:01:23.087Z,8.43
2018-12-31T20:03:50.594Z,8.40
2018-12-31T20:06:18.152Z,8.44
2018-12-31T20:08:45.297Z,8.38
2018-12-31T20:11:13.316Z,8.37
2018-12-31T20:13:41.425Z,8.32
2018-12-31T20:16:08.111Z,8.29
2018-12-31T20:18:34.798Z,8.28
2018-12-31T20:21:01.989Z,8.26
2018-12-31T20:23:28.987Z,8.23
2018-12-31T20:25:56.248Z,8.19
2018-12-31T20:28:23.338Z,8.20
2018-12-31T20:30:51.087Z,8.14
2018-12-31T20:33:18.635Z,8.18
2018-12-31T20:35:45.577Z,8.16
2018-12-31T20:38:14.005Z,8.05
2018-12-31T20:40:40.762Z,7.98
2018-12-31T20:43:08.153Z,7.99
2018-12-31T20:45:35.603Z,8.02
2018-12-31T20:48:02.280Z,7.98
2018-12-31T20:50:29.919Z,8.01
2018-12-31T20:52:57.561Z,8.04
2018-12-31T20:55:24.461Z,8.11
2018-12-31T20:57:51.689Z,8.07
2018-12-31T21:00:20.405Z,8.13
2018-12-31T21:02:47.910Z,8.10
2018-12-31T21:05:16.101Z,8.16
2018-12-31T21:07:43.860Z,8.16
2018-12-31T21:10:11.111Z,8.17
2018-12-31T21:12:40.252Z,8.23
2018-12-31T21:15:07.194Z,8.26
2018-12-31T21:17:33.868Z,8.28
2018-12-31T21:20:01.017Z,8.31
2018-12-31T21:22:27.732Z,8.32
2018-12-31T21:24:54.912Z,8.33
2018-12-31T21:27:22.682Z,8.30
2018-12-31T21:29:49.354Z,8.34
2018-12-31T21:32:16.469Z,8.34
2018-12-31T21:34:43.292Z,8.32
2018-12-31T21:37:11.063Z,8.31
2018-12-31T21:39:38.841Z,8.31
2018-12-31T21:42:05.966Z,8.34
2018-12-31T21:44:32.641Z,8.34
2018-12-31T21:47:00.604Z,8.36
2018-12-31T21:49:27.276Z,8.33
2018-12-31T21:51:54.440Z,8.33
2018-12-31T21:54:21.107Z,8.35
2018-12-31T21:59:30.576Z,8.37
2018-12-31T22:01:57.517Z,8.33
2018-12-31T22:04:24.325Z,8.35
2018-12-31T22:06:51.678Z,8.35
2018-12-31T22:09:18.968Z,8.35
2018-12-31T22:11:46.324Z,8.37
2018-12-31T22:14:14.007Z,8.38
2018-12-31T22:16:40.790Z,8.36
2018-12-31T22:19:08.593Z,8.29
2018-12-31T22:21:36.044Z,8.35
2018-12-31T22:24:03.540Z,8.26
2018-12-31T22:26:30.873Z,8.27
2018-12-31T22:28:58.431Z,8.25
2018-12-31T22:31:25.554Z,8.21
2018-12-31T22:33:52.989Z,8.28
2018-12-31T22:36:19.901Z,8.23
2018-12-31T22:38:47.815Z,8.18
2018-12-31T22:41:14.839Z,8.19
2018-12-31T22:43:41.622Z,8.19
2018-12-31T22:46:08.653Z,8.17
2018-12-31T22:48:36.096Z,8.20
2018-12-31T22:51:03.593Z,8.14
2018-12-31T22:53:31.185Z,8.14
2018-12-31T22:55:58.111Z,8.14
2018-12-31T22:58:24.822Z,8.10
2018-12-31T23:00:52.385Z,8.13
2018-12-31T23:03:19.517Z,8.15
2018-12-31T23:05:46.750Z,8.15
2018-12-31T23:08:14.192Z,8.16
2018-12-31T23:10:41.246Z,8.12
2018-12-31T23:13:09.244Z,8.12
2018-12-31T23:15:36.318Z,8.07
2018-12-31T23:18:03.101Z,8.02
2018-12-31T23:20:30.508Z,8.01
2018-12-31T23:22:58.669Z,7.98
2018-12-31T23:25:25.569Z,7.99
2018-12-31T23:27:53.482Z,7.97
2018-12-31T23:30:20.797Z,7.96
2018-12-31T23:32:48.550Z,8.00
2018-12-31T23:35:16.341Z,8.02
2018-12-31T23:37:44.491Z,7.98
2018-12-31T23:40:12.542Z,7.98
2018-12-31T23:42:39.906Z,7.99
2018-12-31T23:45:08.512Z,7.99
2018-12-31T23:47:35.861Z,7.95
2018-12-31T23:50:03.420Z,7.94
2018-12-31T23:52:31.030Z,7.93
2018-12-31T23:54:58.273Z,7.94
2018-12-31T23:57:24.948Z,7.93
2018-12-31T23:59:51.654Z,7.91
